sensor_id;sensor_type;location;lat;lon;timestamp;P1;durP1;ratioP1;P2;durP2;ratioP2
3991;SDS011;2010;48.194;16.394;2022-11-20T00:01:56;30.40;;;18.77;;
3991;SDS011;2010;48.194;16.394;2022-11-20T00:04:24;28.63;;;18.67;;
3991;SDS011;2010;48.194;16.394;2022-11-20T00:06:52;32.43;;;19.60;;
3991;SDS011;2010;48.194;16.394;2022-11-20T00:09:20;30.83;;;20.30;;
3991;SDS011;2010;48.194;16.394;2022-11-20T00:11:50;27.00;;;18.40;;
3991;SDS011;2010;48.194;16.394;2022-11-20T00:14:18;30.13;;;19.80;;
3991;SDS011;2010;48.194;16.394;2022-11-20T00:16:47;31.03;;;18.90;;
3991;SDS011;2010;48.194;16.394;2022-11-20T00:19:15;34.80;;;20.27;;
3991;SDS011;2010;48.194;16.394;2022-11-20T00:21:44;29.70;;;18.17;;
3991;SDS011;2010;48.194;16.394;2022-11-20T00:24:12;30.70;;;18.70;;
3991;SDS011;2010;48.194;16.394;2022-11-20T00:26:41;30.03;;;18.60;;
3991;SDS011;2010;48.194;16.394;2022-11-20T00:29:10;29.90;;;19.07;;
3991;SDS011;2010;48.194;16.394;2022-11-20T00:31:39;34.37;;;19.30;;
3991;SDS011;2010;48.194;16.394;2022-11-20T00:34:07;25.80;;;16.93;;
3991;SDS011;2010;48.194;16.394;2022-11-20T00:36:36;28.57;;;18.50;;
3991;SDS011;2010;48.194;16.394;2022-11-20T00:39:04;29.30;;;16.50;;
3991;SDS011;2010;48.194;16.394;2022-11-20T00:41:32;32.30;;;19.40;;
3991;SDS011;2010;48.194;16.394;2022-11-20T00:44:00;30.20;;;18.53;;
3991;SDS011;2010;48.194;16.394;2022-11-20T00:46:30;33.57;;;18.33;;
3991;SDS011;2010;48.194;16.394;2022-11-20T00:48:58;33.37;;;19.33;;
3991;SDS011;2010;48.194;16.394;2022-11-20T00:51:26;29.30;;;18.50;;
3991;SDS011;2010;48.194;16.394;2022-11-20T00:53:55;34.23;;;20.13;;
3991;SDS011;2010;48.194;16.394;2022-11-20T00:56:24;29.60;;;17.70;;
3991;SDS011;2010;48.194;16.394;2022-11-20T00:58:52;35.60;;;20.43;;
3991;SDS011;2010;48.194;16.394;2022-11-20T01:01:21;35.73;;;18.63;;
3991;SDS011;2010;48.194;16.394;2022-11-20T01:03:52;31.10;;;19.50;;
3991;SDS011;2010;48.194;16.394;2022-11-20T01:06:23;30.90;;;17.93;;
3991;SDS011;2010;48.194;16.394;2022-11-20T01:08:52;28.30;;;18.10;;
3991;SDS011;2010;48.194;16.394;2022-11-20T01:11:22;31.07;;;19.93;;
3991;SDS011;2010;48.194;16.394;2022-11-20T01:13:51;30.73;;;19.43;;
3991;SDS011;2010;48.194;16.394;2022-11-20T01:16:21;31.90;;;18.80;;
3991;SDS011;2010;48.194;16.394;2022-11-20T01:18:53;31.73;;;19.33;;
3991;SDS011;2010;48.194;16.394;2022-11-20T01:21:24;32.00;;;18.80;;
3991;SDS011;2010;48.194;16.394;2022-11-20T01:23:53;28.50;;;17.53;;
3991;SDS011;2010;48.194;16.394;2022-11-20T01:26:22;32.87;;;19.43;;
3991;SDS011;2010;48.194;16.394;2022-11-20T01:28:51;32.50;;;19.90;;
3991;SDS011;2010;48.194;16.394;2022-11-20T01:31:20;30.63;;;18.87;;
3991;SDS011;2010;48.194;16.394;2022-11-20T01:33:49;29.60;;;18.40;;
3991;SDS011;2010;48.194;16.394;2022-11-20T01:36:20;31.57;;;18.27;;
3991;SDS011;2010;48.194;16.394;2022-11-20T01:38:50;32.83;;;18.97;;
3991;SDS011;2010;48.194;16.394;2022-11-20T01:41:19;32.40;;;18.93;;
3991;SDS011;2010;48.194;16.394;2022-11-20T01:44:02;31.07;;;19.33;;
3991;SDS011;2010;48.194;16.394;2022-11-20T01:46:31;32.10;;;19.57;;
3991;SDS011;2010;48.194;16.394;2022-11-20T01:49:00;31.03;;;19.00;;
3991;SDS011;2010;48.194;16.394;2022-11-20T01:51:33;34.13;;;20.70;;
3991;SDS011;2010;48.194;16.394;2022-11-20T01:54:06;36.73;;;19.50;;
3991;SDS011;2010;48.194;16.394;2022-11-20T01:56:37;31.73;;;20.47;;
3991;SDS011;2010;48.194;16.394;2022-11-20T01:59:07;31.17;;;18.87;;
3991;SDS011;2010;48.194;16.394;2022-11-20T02:01:36;27.90;;;19.23;;
3991;SDS011;2010;48.194;16.394;2022-11-20T02:04:06;28.60;;;18.73;;
3991;SDS011;2010;48.194;16.394;2022-11-20T02:06:38;33.27;;;19.73;;
3991;SDS011;2010;48.194;16.394;2022-11-20T02:09:08;34.00;;;19.77;;
3991;SDS011;2010;48.194;16.394;2022-11-20T02:11:37;28.13;;;18.80;;
3991;SDS011;2010;48.194;16.394;2022-11-20T02:14:05;28.53;;;17.93;;
3991;SDS011;2010;48.194;16.394;2022-11-20T02:16:36;34.70;;;19.77;;
3991;SDS011;2010;48.194;16.394;2022-11-20T02:19:07;42.77;;;19.53;;
3991;SDS011;2010;48.194;16.394;2022-11-20T02:21:40;28.63;;;18.63;;
3991;SDS011;2010;48.194;16.394;2022-11-20T02:24:12;29.40;;;18.70;;
3991;SDS011;2010;48.194;16.394;2022-11-20T02:26:43;33.63;;;19.80;;
3991;SDS011;2010;48.194;16.394;2022-11-20T02:29:15;30.43;;;18.30;;
3991;SDS011;2010;48.194;16.394;2022-11-20T02:31:45;35.40;;;19.33;;
3991;SDS011;2010;48.194;16.394;2022-11-20T02:34:14;32.30;;;20.17;;
3991;SDS011;2010;48.194;16.394;2022-11-20T02:36:42;34.27;;;19.80;;
3991;SDS011;2010;48.194;16.394;2022-11-20T02:39:10;28.63;;;19.33;;
3991;SDS011;2010;48.194;16.394;2022-11-20T02:41:43;33.63;;;19.53;;
3991;SDS011;2010;48.194;16.394;2022-11-20T02:44:12;34.27;;;20.60;;
3991;SDS011;2010;48.194;16.394;2022-11-20T02:46:40;34.00;;;21.00;;
3991;SDS011;2010;48.194;16.394;2022-11-20T02:49:08;33.33;;;20.87;;
3991;SDS011;2010;48.194;16.394;2022-11-20T02:51:36;35.20;;;20.37;;
3991;SDS011;2010;48.194;16.394;2022-11-20T02:54:04;34.43;;;19.90;;
3991;SDS011;2010;48.194;16.394;2022-11-20T02:56:33;30.60;;;20.57;;
3991;SDS011;2010;48.194;16.394;2022-11-20T02:59:02;32.50;;;20.73;;
3991;SDS011;2010;48.194;16.394;2022-11-20T03:01:31;29.80;;;19.20;;
3991;SDS011;2010;48.194;16.394;2022-11-20T03:03:59;35.43;;;20.77;;
3991;SDS011;2010;48.194;16.394;2022-11-20T03:06:27;35.47;;;20.47;;
3991;SDS011;2010;48.194;16.394;2022-11-20T03:08:55;31.37;;;19.17;;
3991;SDS011;2010;48.194;16.394;2022-11-20T03:11:23;34.30;;;21.00;;
3991;SDS011;2010;48.194;16.394;2022-11-20T03:13:52;34.13;;;20.67;;
3991;SDS011;2010;48.194;16.394;2022-11-20T03:16:21;30.80;;;18.93;;
3991;SDS011;2010;48.194;16.394;2022-11-20T03:18:52;37.20;;;20.07;;
3991;SDS011;2010;48.194;16.394;2022-11-20T03:21:20;35.20;;;20.40;;
3991;SDS011;2010;48.194;16.394;2022-11-20T03:23:48;31.10;;;19.03;;
3991;SDS011;2010;48.194;16.394;2022-11-20T03:26:17;32.67;;;20.77;;
3991;SDS011;2010;48.194;16.394;2022-11-20T03:28:46;29.70;;;18.47;;
3991;SDS011;2010;48.194;16.394;2022-11-20T03:31:18;32.87;;;20.90;;
3991;SDS011;2010;48.194;16.394;2022-11-20T03:33:48;33.13;;;18.80;;
3991;SDS011;2010;48.194;16.394;2022-11-20T03:36:16;33.70;;;20.20;;
3991;SDS011;2010;48.194;16.394;2022-11-20T03:38:46;30.57;;;19.53;;
3991;SDS011;2010;48.194;16.394;2022-11-20T03:41:17;28.43;;;18.40;;
3991;SDS011;2010;48.194;16.394;2022-11-20T03:43:49;31.57;;;18.57;;
3991;SDS011;2010;48.194;16.394;2022-11-20T03:46:19;33.47;;;19.50;;
3991;SDS011;2010;48.194;16.394;2022-11-20T03:48:47;30.40;;;18.17;;
3991;SDS011;2010;48.194;16.394;2022-11-20T03:51:18;30.40;;;18.37;;
3991;SDS011;2010;48.194;16.394;2022-11-20T03:53:47;35.50;;;19.83;;
3991;SDS011;2010;48.194;16.394;2022-11-20T03:56:17;28.50;;;18.50;;
3991;SDS011;2010;48.194;16.394;2022-11-20T03:58:46;33.50;;;19.47;;
3991;SDS011;2010;48.194;16.394;2022-11-20T04:01:15;30.17;;;18.70;;
3991;SDS011;2010;48.194;16.394;2022-11-20T04:03:45;30.83;;;18.40;;
3991;SDS011;2010;48.194;16.394;2022-11-20T04:06:15;30.37;;;19.03;;
3991;SDS011;2010;48.194;16.394;2022-11-20T04:08:43;36.80;;;20.57;;
3991;SDS011;2010;48.194;16.394;2022-11-20T04:11:20;32.37;;;19.67;;
3991;SDS011;2010;48.194;16.394;2022-11-20T04:13:49;29.87;;;18.33;;
3991;SDS011;2010;48.194;16.394;2022-11-20T04:16:19;32.50;;;19.70;;
3991;SDS011;2010;48.194;16.394;2022-11-20T04:18:52;31.57;;;19.40;;
3991;SDS011;2010;48.194;16.394;2022-11-20T04:21:20;30.50;;;19.30;;
3991;SDS011;2010;48.194;16.394;2022-11-20T04:23:49;30.53;;;18.50;;
3991;SDS011;2010;48.194;16.394;2022-11-20T04:26:17;27.27;;;17.73;;
3991;SDS011;2010;48.194;16.394;2022-11-20T04:28:45;35.80;;;21.40;;
3991;SDS011;2010;48.194;16.394;2022-11-20T04:31:14;36.10;;;21.20;;
3991;SDS011;2010;48.194;16.394;2022-11-20T04:33:43;33.87;;;19.07;;
3991;SDS011;2010;48.194;16.394;2022-11-20T04:36:14;36.40;;;20.00;;
3991;SDS011;2010;48.194;16.394;2022-11-20T04:38:43;33.47;;;19.83;;
3991;SDS011;2010;48.194;16.394;2022-11-20T04:41:13;33.70;;;19.73;;
3991;SDS011;2010;48.194;16.394;2022-11-20T04:43:45;31.60;;;18.63;;
3991;SDS011;2010;48.194;16.394;2022-11-20T04:46:14;32.40;;;19.03;;
3991;SDS011;2010;48.194;16.394;2022-11-20T04:48:42;32.03;;;18.90;;
3991;SDS011;2010;48.194;16.394;2022-11-20T04:51:11;31.40;;;18.87;;
3991;SDS011;2010;48.194;16.394;2022-11-20T04:53:41;32.00;;;18.97;;
3991;SDS011;2010;48.194;16.394;2022-11-20T04:56:09;42.10;;;21.87;;
3991;SDS011;2010;48.194;16.394;2022-11-20T04:58:39;32.77;;;19.40;;
3991;SDS011;2010;48.194;16.394;2022-11-20T05:01:09;34.97;;;20.40;;
3991;SDS011;2010;48.194;16.394;2022-11-20T05:03:38;31.47;;;20.30;;
3991;SDS011;2010;48.194;16.394;2022-11-20T05:06:08;36.30;;;20.03;;
3991;SDS011;2010;48.194;16.394;2022-11-20T05:08:37;32.93;;;19.90;;
3991;SDS011;2010;48.194;16.394;2022-11-20T05:11:07;33.03;;;19.87;;
3991;SDS011;2010;48.194;16.394;2022-11-20T05:13:36;33.50;;;19.73;;
3991;SDS011;2010;48.194;16.394;2022-11-20T05:16:05;31.83;;;19.73;;
3991;SDS011;2010;48.194;16.394;2022-11-20T05:18:35;32.93;;;20.23;;
3991;SDS011;2010;48.194;16.394;2022-11-20T05:21:04;33.20;;;20.50;;
3991;SDS011;2010;48.194;16.394;2022-11-20T05:23:33;32.80;;;20.93;;
3991;SDS011;2010;48.194;16.394;2022-11-20T05:26:02;33.97;;;20.40;;
3991;SDS011;2010;48.194;16.394;2022-11-20T05:28:32;32.70;;;20.40;;
3991;SDS011;2010;48.194;16.394;2022-11-20T05:31:04;33.40;;;20.60;;
3991;SDS011;2010;48.194;16.394;2022-11-20T05:33:33;33.13;;;20.23;;
3991;SDS011;2010;48.194;16.394;2022-11-20T05:36:02;37.93;;;21.63;;
3991;SDS011;2010;48.194;16.394;2022-11-20T05:38:31;32.40;;;20.77;;
3991;SDS011;2010;48.194;16.394;2022-11-20T05:41:03;33.37;;;20.70;;
3991;SDS011;2010;48.194;16.394;2022-11-20T05:43:33;32.67;;;19.80;;
3991;SDS011;2010;48.194;16.394;2022-11-20T05:46:02;37.23;;;21.80;;
3991;SDS011;2010;48.194;16.394;2022-11-20T05:48:30;30.60;;;20.87;;
3991;SDS011;2010;48.194;16.394;2022-11-20T05:50:58;33.43;;;19.43;;
3991;SDS011;2010;48.194;16.394;2022-11-20T05:53:26;31.77;;;20.50;;
3991;SDS011;2010;48.194;16.394;2022-11-20T05:55:58;32.43;;;20.50;;
3991;SDS011;2010;48.194;16.394;2022-11-20T05:58:26;32.17;;;20.00;;
3991;SDS011;2010;48.194;16.394;2022-11-20T06:01:02;28.83;;;19.57;;
3991;SDS011;2010;48.194;16.394;2022-11-20T06:03:31;30.27;;;19.20;;
3991;SDS011;2010;48.194;16.394;2022-11-20T06:05:59;30.30;;;18.80;;
3991;SDS011;2010;48.194;16.394;2022-11-20T06:08:31;33.93;;;21.27;;
3991;SDS011;2010;48.194;16.394;2022-11-20T06:11:02;29.80;;;19.40;;
3991;SDS011;2010;48.194;16.394;2022-11-20T06:13:31;31.27;;;19.97;;
3991;SDS011;2010;48.194;16.394;2022-11-20T06:16:06;32.63;;;19.63;;
3991;SDS011;2010;48.194;16.394;2022-11-20T06:18:34;34.70;;;20.30;;
3991;SDS011;2010;48.194;16.394;2022-11-20T06:21:03;33.30;;;21.07;;
3991;SDS011;2010;48.194;16.394;2022-11-20T06:23:32;38.33;;;20.63;;
3991;SDS011;2010;48.194;16.394;2022-11-20T06:26:01;32.30;;;19.67;;
3991;SDS011;2010;48.194;16.394;2022-11-20T06:28:30;34.00;;;20.33;;
3991;SDS011;2010;48.194;16.394;2022-11-20T06:30:58;32.37;;;20.20;;
3991;SDS011;2010;48.194;16.394;2022-11-20T06:33:28;32.17;;;20.50;;
3991;SDS011;2010;48.194;16.394;2022-11-20T06:35:57;38.13;;;21.90;;
3991;SDS011;2010;48.194;16.394;2022-11-20T06:38:30;31.77;;;20.30;;
3991;SDS011;2010;48.194;16.394;2022-11-20T06:40:58;34.87;;;21.47;;
3991;SDS011;2010;48.194;16.394;2022-11-20T06:43:28;36.40;;;21.37;;
3991;SDS011;2010;48.194;16.394;2022-11-20T06:45:57;32.67;;;20.73;;
3991;SDS011;2010;48.194;16.394;2022-11-20T06:48:26;37.10;;;21.27;;
3991;SDS011;2010;48.194;16.394;2022-11-20T06:50:57;32.73;;;19.90;;
3991;SDS011;2010;48.194;16.394;2022-11-20T06:53:26;37.63;;;21.83;;
3991;SDS011;2010;48.194;16.394;2022-11-20T06:55:55;36.47;;;22.90;;
3991;SDS011;2010;48.194;16.394;2022-11-20T06:58:23;33.50;;;21.47;;
3991;SDS011;2010;48.194;16.394;2022-11-20T07:00:53;34.83;;;20.60;;
3991;SDS011;2010;48.194;16.394;2022-11-20T07:03:21;36.33;;;21.43;;
3991;SDS011;2010;48.194;16.394;2022-11-20T07:05:51;32.53;;;20.57;;
3991;SDS011;2010;48.194;16.394;2022-11-20T07:08:19;36.20;;;21.67;;
3991;SDS011;2010;48.194;16.394;2022-11-20T07:10:47;36.83;;;22.40;;
3991;SDS011;2010;48.194;16.394;2022-11-20T07:13:15;35.53;;;20.47;;
3991;SDS011;2010;48.194;16.394;2022-11-20T07:15:43;34.80;;;20.90;;
3991;SDS011;2010;48.194;16.394;2022-11-20T07:18:11;36.47;;;21.50;;
3991;SDS011;2010;48.194;16.394;2022-11-20T07:20:39;32.93;;;21.53;;
3991;SDS011;2010;48.194;16.394;2022-11-20T07:23:09;34.73;;;21.50;;
3991;SDS011;2010;48.194;16.394;2022-11-20T07:25:37;34.60;;;20.83;;
3991;SDS011;2010;48.194;16.394;2022-11-20T07:28:05;36.90;;;22.07;;
3991;SDS011;2010;48.194;16.394;2022-11-20T07:30:33;37.33;;;22.67;;
3991;SDS011;2010;48.194;16.394;2022-11-20T07:33:01;38.80;;;22.67;;
3991;SDS011;2010;48.194;16.394;2022-11-20T07:35:29;38.23;;;22.53;;
3991;SDS011;2010;48.194;16.394;2022-11-20T07:37:57;36.50;;;23.20;;
3991;SDS011;2010;48.194;16.394;2022-11-20T07:40:27;37.27;;;22.90;;
3991;SDS011;2010;48.194;16.394;2022-11-20T07:42:55;36.67;;;21.87;;
3991;SDS011;2010;48.194;16.394;2022-11-20T07:45:23;36.30;;;22.40;;
3991;SDS011;2010;48.194;16.394;2022-11-20T07:47:52;36.00;;;22.60;;
3991;SDS011;2010;48.194;16.394;2022-11-20T07:50:20;38.60;;;21.67;;
3991;SDS011;2010;48.194;16.394;2022-11-20T07:52:48;42.00;;;22.93;;
3991;SDS011;2010;48.194;16.394;2022-11-20T07:55:17;36.83;;;22.10;;
3991;SDS011;2010;48.194;16.394;2022-11-20T07:57:46;38.23;;;22.60;;
3991;SDS011;2010;48.194;16.394;2022-11-20T08:00:22;37.97;;;22.77;;
3991;SDS011;2010;48.194;16.394;2022-11-20T08:02:50;35.70;;;22.30;;
3991;SDS011;2010;48.194;16.394;2022-11-20T08:05:18;36.97;;;22.87;;
3991;SDS011;2010;48.194;16.394;2022-11-20T08:07:46;36.70;;;22.50;;
3991;SDS011;2010;48.194;16.394;2022-11-20T08:10:15;34.57;;;22.37;;
3991;SDS011;2010;48.194;16.394;2022-11-20T08:12:44;37.23;;;23.03;;
3991;SDS011;2010;48.194;16.394;2022-11-20T08:15:31;40.40;;;23.53;;
3991;SDS011;2010;48.194;16.394;2022-11-20T08:18:00;36.27;;;22.23;;
3991;SDS011;2010;48.194;16.394;2022-11-20T08:20:49;36.30;;;22.20;;
3991;SDS011;2010;48.194;16.394;2022-11-20T08:23:17;38.43;;;22.17;;
3991;SDS011;2010;48.194;16.394;2022-11-20T08:25:48;38.33;;;22.50;;
3991;SDS011;2010;48.194;16.394;2022-11-20T08:28:17;43.70;;;24.40;;
3991;SDS011;2010;48.194;16.394;2022-11-20T08:30:49;38.67;;;22.87;;
3991;SDS011;2010;48.194;16.394;2022-11-20T08:33:17;49.07;;;23.07;;
3991;SDS011;2010;48.194;16.394;2022-11-20T08:35:45;39.00;;;23.03;;
3991;SDS011;2010;48.194;16.394;2022-11-20T08:38:13;40.63;;;23.60;;
3991;SDS011;2010;48.194;16.394;2022-11-20T08:40:42;37.13;;;22.43;;
3991;SDS011;2010;48.194;16.394;2022-11-20T08:43:30;38.43;;;22.33;;
3991;SDS011;2010;48.194;16.394;2022-11-20T08:46:00;38.33;;;22.90;;
3991;SDS011;2010;48.194;16.394;2022-11-20T08:48:28;42.03;;;23.60;;
3991;SDS011;2010;48.194;16.394;2022-11-20T08:50:57;39.57;;;23.03;;
3991;SDS011;2010;48.194;16.394;2022-11-20T08:53:26;38.00;;;23.50;;
3991;SDS011;2010;48.194;16.394;2022-11-20T08:55:54;36.80;;;22.40;;
3991;SDS011;2010;48.194;16.394;2022-11-20T08:58:22;39.37;;;22.90;;
3991;SDS011;2010;48.194;16.394;2022-11-20T09:00:50;38.80;;;24.50;;
3991;SDS011;2010;48.194;16.394;2022-11-20T09:03:19;37.90;;;24.77;;
3991;SDS011;2010;48.194;16.394;2022-11-20T09:05:48;37.57;;;23.40;;
3991;SDS011;2010;48.194;16.394;2022-11-20T09:08:16;45.20;;;24.20;;
3991;SDS011;2010;48.194;16.394;2022-11-20T09:10:44;44.17;;;25.93;;
3991;SDS011;2010;48.194;16.394;2022-11-20T09:13:12;38.53;;;23.90;;
3991;SDS011;2010;48.194;16.394;2022-11-20T09:15:40;40.83;;;24.23;;
3991;SDS011;2010;48.194;16.394;2022-11-20T09:18:08;36.70;;;22.27;;
3991;SDS011;2010;48.194;16.394;2022-11-20T09:20:37;41.67;;;23.40;;
3991;SDS011;2010;48.194;16.394;2022-11-20T09:23:05;40.07;;;24.90;;
3991;SDS011;2010;48.194;16.394;2022-11-20T09:25:33;36.67;;;23.90;;
3991;SDS011;2010;48.194;16.394;2022-11-20T09:28:02;37.57;;;23.53;;
3991;SDS011;2010;48.194;16.394;2022-11-20T09:30:30;39.90;;;24.63;;
3991;SDS011;2010;48.194;16.394;2022-11-20T09:32:58;40.83;;;25.47;;
3991;SDS011;2010;48.194;16.394;2022-11-20T09:35:26;38.90;;;23.90;;
3991;SDS011;2010;48.194;16.394;2022-11-20T09:37:56;41.50;;;26.07;;
3991;SDS011;2010;48.194;16.394;2022-11-20T09:40:25;41.90;;;26.03;;
3991;SDS011;2010;48.194;16.394;2022-11-20T09:42:56;44.73;;;24.83;;
3991;SDS011;2010;48.194;16.394;2022-11-20T09:45:30;39.50;;;24.70;;
3991;SDS011;2010;48.194;16.394;2022-11-20T09:48:10;43.00;;;25.37;;
3991;SDS011;2010;48.194;16.394;2022-11-20T09:50:47;45.90;;;26.00;;
3991;SDS011;2010;48.194;16.394;2022-11-20T09:53:23;47.73;;;26.47;;
3991;SDS011;2010;48.194;16.394;2022-11-20T09:55:54;45.23;;;26.50;;
3991;SDS011;2010;48.194;16.394;2022-11-20T09:58:25;45.47;;;26.43;;
3991;SDS011;2010;48.194;16.394;2022-11-20T10:00:59;41.63;;;25.53;;
3991;SDS011;2010;48.194;16.394;2022-11-20T10:03:35;43.47;;;24.57;;
3991;SDS011;2010;48.194;16.394;2022-11-20T10:06:08;39.83;;;22.97;;
3991;SDS011;2010;48.194;16.394;2022-11-20T10:08:43;38.50;;;25.10;;
3991;SDS011;2010;48.194;16.394;2022-11-20T10:11:13;43.23;;;26.10;;
3991;SDS011;2010;48.194;16.394;2022-11-20T10:13:46;41.00;;;24.90;;
3991;SDS011;2010;48.194;16.394;2022-11-20T10:16:21;42.50;;;25.60;;
3991;SDS011;2010;48.194;16.394;2022-11-20T10:18:57;42.63;;;24.57;;
3991;SDS011;2010;48.194;16.394;2022-11-20T10:21:32;42.77;;;25.07;;
3991;SDS011;2010;48.194;16.394;2022-11-20T10:24:12;42.53;;;25.27;;
3991;SDS011;2010;48.194;16.394;2022-11-20T10:26:53;47.10;;;27.17;;
3991;SDS011;2010;48.194;16.394;2022-11-20T10:29:28;49.17;;;27.53;;
3991;SDS011;2010;48.194;16.394;2022-11-20T10:32:00;41.50;;;24.77;;
3991;SDS011;2010;48.194;16.394;2022-11-20T10:34:31;41.77;;;24.27;;
3991;SDS011;2010;48.194;16.394;2022-11-20T10:37:05;40.83;;;24.33;;
3991;SDS011;2010;48.194;16.394;2022-11-20T10:39:39;41.33;;;23.90;;
3991;SDS011;2010;48.194;16.394;2022-11-20T10:42:10;42.60;;;25.80;;
3991;SDS011;2010;48.194;16.394;2022-11-20T10:44:39;40.17;;;23.63;;
3991;SDS011;2010;48.194;16.394;2022-11-20T10:47:32;39.70;;;23.93;;
3991;SDS011;2010;48.194;16.394;2022-11-20T10:50:01;42.10;;;25.00;;
3991;SDS011;2010;48.194;16.394;2022-11-20T10:52:32;39.23;;;25.60;;
3991;SDS011;2010;48.194;16.394;2022-11-20T10:55:10;41.80;;;25.60;;
3991;SDS011;2010;48.194;16.394;2022-11-20T10:57:48;38.67;;;24.20;;
3991;SDS011;2010;48.194;16.394;2022-11-20T11:00:20;41.63;;;26.50;;
3991;SDS011;2010;48.194;16.394;2022-11-20T11:02:49;41.40;;;26.27;;
3991;SDS011;2010;48.194;16.394;2022-11-20T11:05:22;47.40;;;27.30;;
3991;SDS011;2010;48.194;16.394;2022-11-20T11:07:54;41.73;;;26.37;;
3991;SDS011;2010;48.194;16.394;2022-11-20T11:10:25;44.03;;;27.27;;
3991;SDS011;2010;48.194;16.394;2022-11-20T11:12:59;43.70;;;26.57;;
3991;SDS011;2010;48.194;16.394;2022-11-20T11:15:28;42.13;;;26.77;;
3991;SDS011;2010;48.194;16.394;2022-11-20T11:17:57;41.73;;;25.00;;
3991;SDS011;2010;48.194;16.394;2022-11-20T11:20:25;42.00;;;24.47;;
3991;SDS011;2010;48.194;16.394;2022-11-20T11:22:55;46.13;;;25.33;;
3991;SDS011;2010;48.194;16.394;2022-11-20T11:25:27;42.80;;;26.30;;
3991;SDS011;2010;48.194;16.394;2022-11-20T11:27:57;47.00;;;26.37;;
3991;SDS011;2010;48.194;16.394;2022-11-20T11:30:27;42.60;;;23.80;;
3991;SDS011;2010;48.194;16.394;2022-11-20T11:33:05;44.87;;;26.60;;
3991;SDS011;2010;48.194;16.394;2022-11-20T11:35:38;41.57;;;25.20;;
3991;SDS011;2010;48.194;16.394;2022-11-20T11:38:19;41.60;;;24.80;;
3991;SDS011;2010;48.194;16.394;2022-11-20T11:40:52;38.77;;;24.93;;
3991;SDS011;2010;48.194;16.394;2022-11-20T11:43:21;46.50;;;25.20;;
3991;SDS011;2010;48.194;16.394;2022-11-20T11:46:19;36.60;;;23.63;;
3991;SDS011;2010;48.194;16.394;2022-11-20T11:48:56;39.40;;;23.90;;
3991;SDS011;2010;48.194;16.394;2022-11-20T11:51:26;40.37;;;24.57;;
3991;SDS011;2010;48.194;16.394;2022-11-20T11:53:58;39.67;;;25.50;;
3991;SDS011;2010;48.194;16.394;2022-11-20T11:56:30;43.80;;;25.23;;
3991;SDS011;2010;48.194;16.394;2022-11-20T11:59:00;44.80;;;25.83;;
3991;SDS011;2010;48.194;16.394;2022-11-20T12:01:29;43.27;;;25.13;;
3991;SDS011;2010;48.194;16.394;2022-11-20T12:04:03;48.50;;;26.70;;
3991;SDS011;2010;48.194;16.394;2022-11-20T12:06:32;48.37;;;27.23;;
3991;SDS011;2010;48.194;16.394;2022-11-20T12:09:03;37.67;;;25.60;;
3991;SDS011;2010;48.194;16.394;2022-11-20T12:11:34;38.13;;;25.10;;
3991;SDS011;2010;48.194;16.394;2022-11-20T12:14:09;43.40;;;25.43;;
3991;SDS011;2010;48.194;16.394;2022-11-20T12:16:41;42.63;;;26.23;;
3991;SDS011;2010;48.194;16.394;2022-11-20T12:19:10;38.33;;;24.23;;
3991;SDS011;2010;48.194;16.394;2022-11-20T12:21:43;40.13;;;24.50;;
3991;SDS011;2010;48.194;16.394;2022-11-20T12:24:23;40.00;;;25.90;;
3991;SDS011;2010;48.194;16.394;2022-11-20T12:27:02;39.20;;;24.63;;
3991;SDS011;2010;48.194;16.394;2022-11-20T12:29:39;41.97;;;26.20;;
3991;SDS011;2010;48.194;16.394;2022-11-20T12:32:22;40.97;;;25.20;;
3991;SDS011;2010;48.194;16.394;2022-11-20T12:35:06;37.50;;;23.63;;
3991;SDS011;2010;48.194;16.394;2022-11-20T12:37:43;39.97;;;24.13;;
3991;SDS011;2010;48.194;16.394;2022-11-20T12:40:26;38.70;;;25.00;;
3991;SDS011;2010;48.194;16.394;2022-11-20T12:43:21;42.87;;;24.27;;
3991;SDS011;2010;48.194;16.394;2022-11-20T12:46:23;43.30;;;25.77;;
3991;SDS011;2010;48.194;16.394;2022-11-20T12:49:23;50.93;;;27.50;;
3991;SDS011;2010;48.194;16.394;2022-11-20T12:52:00;41.33;;;25.70;;
3991;SDS011;2010;48.194;16.394;2022-11-20T12:57:42;39.53;;;24.43;;
3991;SDS011;2010;48.194;16.394;2022-11-20T13:00:24;41.40;;;26.43;;
3991;SDS011;2010;48.194;16.394;2022-11-20T13:03:06;39.63;;;25.13;;
3991;SDS011;2010;48.194;16.394;2022-11-20T13:05:43;37.70;;;24.53;;
3991;SDS011;2010;48.194;16.394;2022-11-20T13:08:19;40.50;;;25.20;;
3991;SDS011;2010;48.194;16.394;2022-11-20T13:10:51;39.80;;;25.10;;
3991;SDS011;2010;48.194;16.394;2022-11-20T13:13:30;40.07;;;25.33;;
3991;SDS011;2010;48.194;16.394;2022-11-20T13:16:06;42.13;;;24.70;;
3991;SDS011;2010;48.194;16.394;2022-11-20T13:18:40;39.43;;;25.10;;
3991;SDS011;2010;48.194;16.394;2022-11-20T13:21:16;41.37;;;26.37;;
3991;SDS011;2010;48.194;16.394;2022-11-20T13:23:45;40.97;;;23.93;;
3991;SDS011;2010;48.194;16.394;2022-11-20T13:26:15;36.63;;;25.60;;
3991;SDS011;2010;48.194;16.394;2022-11-20T13:28:46;38.63;;;25.20;;
3991;SDS011;2010;48.194;16.394;2022-11-20T13:31:27;36.00;;;23.23;;
3991;SDS011;2010;48.194;16.394;2022-11-20T13:33:59;38.27;;;23.57;;
3991;SDS011;2010;48.194;16.394;2022-11-20T13:36:30;36.37;;;24.37;;
3991;SDS011;2010;48.194;16.394;2022-11-20T13:39:02;37.40;;;24.97;;
3991;SDS011;2010;48.194;16.394;2022-11-20T13:41:32;35.60;;;24.17;;
3991;SDS011;2010;48.194;16.394;2022-11-20T13:44:10;37.57;;;24.50;;
3991;SDS011;2010;48.194;16.394;2022-11-20T13:46:44;37.83;;;23.10;;
3991;SDS011;2010;48.194;16.394;2022-11-20T13:49:16;35.00;;;24.40;;
3991;SDS011;2010;48.194;16.394;2022-11-20T13:51:48;36.80;;;24.87;;
3991;SDS011;2010;48.194;16.394;2022-11-20T13:54:29;34.90;;;24.10;;
3991;SDS011;2010;48.194;16.394;2022-11-20T13:57:27;36.50;;;23.00;;
3991;SDS011;2010;48.194;16.394;2022-11-20T14:00:10;37.70;;;25.40;;
3991;SDS011;2010;48.194;16.394;2022-11-20T14:02:42;40.13;;;25.70;;
3991;SDS011;2010;48.194;16.394;2022-11-20T14:05:15;37.20;;;23.83;;
3991;SDS011;2010;48.194;16.394;2022-11-20T14:07:49;38.17;;;24.30;;
3991;SDS011;2010;48.194;16.394;2022-11-20T14:10:20;40.47;;;24.80;;
3991;SDS011;2010;48.194;16.394;2022-11-20T14:12:57;37.47;;;24.50;;
3991;SDS011;2010;48.194;16.394;2022-11-20T14:15:28;36.50;;;23.30;;
3991;SDS011;2010;48.194;16.394;2022-11-20T14:17:59;39.13;;;24.93;;
3991;SDS011;2010;48.194;16.394;2022-11-20T14:20:40;34.80;;;23.30;;
3991;SDS011;2010;48.194;16.394;2022-11-20T14:23:11;37.00;;;24.37;;
3991;SDS011;2010;48.194;16.394;2022-11-20T14:25:42;37.93;;;23.73;;
3991;SDS011;2010;48.194;16.394;2022-11-20T14:28:17;43.30;;;26.70;;
3991;SDS011;2010;48.194;16.394;2022-11-20T14:30:50;38.80;;;25.90;;
3991;SDS011;2010;48.194;16.394;2022-11-20T14:33:21;44.03;;;26.07;;
3991;SDS011;2010;48.194;16.394;2022-11-20T14:35:52;38.80;;;25.10;;
3991;SDS011;2010;48.194;16.394;2022-11-20T14:38:24;38.37;;;23.53;;
3991;SDS011;2010;48.194;16.394;2022-11-20T14:41:05;43.90;;;25.63;;
3991;SDS011;2010;48.194;16.394;2022-11-20T14:43:35;40.57;;;24.80;;
3991;SDS011;2010;48.194;16.394;2022-11-20T14:46:07;39.10;;;25.67;;
3991;SDS011;2010;48.194;16.394;2022-11-20T14:48:39;42.60;;;25.63;;
3991;SDS011;2010;48.194;16.394;2022-11-20T14:51:10;38.23;;;25.83;;
3991;SDS011;2010;48.194;16.394;2022-11-20T14:53:39;40.00;;;24.73;;
3991;SDS011;2010;48.194;16.394;2022-11-20T14:56:12;38.50;;;24.80;;
3991;SDS011;2010;48.194;16.394;2022-11-20T14:58:56;41.10;;;25.50;;
3991;SDS011;2010;48.194;16.394;2022-11-20T15:01:25;40.43;;;26.13;;